Snow Hill, Maryland
Current Conditions -  °F | °C
As of 1:54 AM on Friday 28 Nov 2014 (Local Time) from KSBY Reporting Station
Scattered Clouds Scattered Clouds  
Wind Chill: 29°   Ceiling: Unl
Heat Index: 34°   Visibility: 9mi
Dew Point: 29°   Wind: 6mph
Humidity: 82%   Direction: 290°WNW
Pressure: 30.14"   Gusts: NA
Location:  38.18°N, 75.39°W
Report Text: KSBY 280654Z AUTO 29005KT 9SM FEW050 SCT080 01/M02 A3014 RMK AO2 SLP211 T00111017
Loading
Personal Weather Stations






























Interactive Weather Map New forecast layout! Learn more

10-Day Weather Forecast

Advertisements
Track Severe Weather on mobile